Time;durP1;ratioP1;P1;durP2;ratioP2;P2;SDS_P1;SDS_P2;PMS_P1;PMS_P2;Temp;Humidity;BMP_temperature;BMP_pressure;BME280_temperature;BME280_humidity;BME280_pressure;Samples;Min_cycle;Max_cycle;Signal;HPM_P1;HPM_P2
2022/06/01 00:00:26;;;;;;;1.70;1.60;;;11.10;99.90;;;;;;5105923;28;20024;-46
2022/06/01 00:02:52;;;;;;;3.22;1.80;;;11.10;99.90;;;;;;5103962;28;20028;-45
2022/06/01 00:05:19;;;;;;;1.90;1.70;;;11.10;99.90;;;;;;5082601;28;20477;-46
2022/06/01 00:07:45;;;;;;;1.70;1.60;;;11.00;99.90;;;;;;5107029;28;20035;-48
2022/06/01 00:10:11;;;;;;;2.33;1.90;;;11.00;99.90;;;;;;5101177;28;20012;-47
2022/06/01 00:12:40;;;;;;;1.67;1.58;;;11.00;99.90;;;;;;5097522;28;20401;-46
2022/06/01 00:15:07;;;;;;;2.47;1.65;;;11.00;99.90;;;;;;5084964;28;20073;-45
2022/06/01 00:17:33;;;;;;;1.70;1.60;;;10.90;99.90;;;;;;5104657;28;20609;-47
2022/06/01 00:19:59;;;;;;;2.17;2.08;;;10.90;99.90;;;;;;5100804;28;20108;-45
2022/06/01 00:22:25;;;;;;;1.95;1.58;;;10.80;99.90;;;;;;5106326;28;20055;-45
2022/06/01 00:24:50;;;;;;;1.70;1.60;;;10.80;99.90;;;;;;5083096;28;20056;-44
2022/06/01 00:27:17;;;;;;;1.55;1.40;;;10.80;99.90;;;;;;5108519;28;20024;-45
2022/06/01 00:29:43;;;;;;;2.30;2.10;;;10.70;99.90;;;;;;5100415;28;20012;-44
2022/06/01 00:32:13;;;;;;;2.22;2.03;;;10.70;99.90;;;;;;5102978;28;20149;-45
2022/06/01 00:34:39;;;;;;;1.98;1.88;;;10.70;99.90;;;;;;5103542;28;20012;-45
2022/06/01 00:37:05;;;;;;;1.77;1.67;;;10.70;99.90;;;;;;5102506;28;20035;-45
2022/06/01 00:39:31;;;;;;;2.80;2.20;;;10.70;99.90;;;;;;5105222;28;20024;-45
2022/06/01 00:42:17;;;;;;;2.03;1.85;;;10.70;99.90;;;;;;5101019;28;20024;-45
2022/06/01 00:44:44;;;;;;;2.92;2.65;;;10.60;99.90;;;;;;5104379;28;20051;-45
2022/06/01 00:47:10;;;;;;;3.80;2.45;;;10.60;99.90;;;;;;5103268;28;20233;-45
2022/06/01 00:49:38;;;;;;;3.22;2.70;;;10.60;99.90;;;;;;5103676;28;20028;-45
2022/06/01 00:52:05;;;;;;;2.20;2.00;;;10.60;99.90;;;;;;5101991;28;20027;-46
2022/06/01 00:54:31;;;;;;;3.10;2.50;;;10.50;99.90;;;;;;5089960;28;20023;-45
2022/06/01 00:57:03;;;;;;;2.95;2.40;;;10.50;99.90;;;;;;5096800;28;20555;-45
2022/06/01 00:59:33;;;;;;;2.55;2.35;;;10.50;99.90;;;;;;5091933;28;20028;-48
2022/06/01 01:02:02;;;;;;;2.55;2.35;;;10.50;99.90;;;;;;5105061;28;20111;-48
2022/06/01 01:04:31;;;;;;;3.10;2.10;;;10.40;99.90;;;;;;5090021;28;20382;-49
2022/06/01 01:06:59;;;;;;;2.53;2.42;;;10.40;99.90;;;;;;5102614;28;20111;-47
2022/06/01 01:09:24;;;;;;;2.97;2.58;;;10.40;99.90;;;;;;5096472;28;20039;-47
2022/06/01 01:11:58;;;;;;;2.92;2.53;;;10.30;99.90;;;;;;5091931;28;20029;-51
2022/06/01 01:14:28;;;;;;;4.65;2.78;;;10.30;99.90;;;;;;5103229;28;20030;-49
2022/06/01 01:16:54;;;;;;;2.85;2.65;;;10.30;99.90;;;;;;5101151;28;20031;-51
2022/06/01 01:19:37;;;;;;;2.90;2.35;;;10.20;99.90;;;;;;5103033;28;20485;-48
2022/06/01 01:22:33;;;;;;;3.20;2.95;;;10.20;99.90;;;;;;5100880;28;20531;-50
2022/06/01 01:25:17;;;;;;;2.75;2.45;;;10.10;99.90;;;;;;5101515;28;20035;-47
2022/06/01 01:27:45;;;;;;;3.92;3.20;;;10.10;99.90;;;;;;5086007;28;20422;-48
2022/06/01 01:30:54;;;;;;;3.72;3.13;;;10.00;99.90;;;;;;5099674;28;20016;-47
2022/06/01 01:33:25;;;;;;;3.10;2.70;;;10.00;99.90;;;;;;4996759;28;20030;-48
2022/06/01 01:35:54;;;;;;;2.35;2.22;;;10.00;99.90;;;;;;5087086;28;20243;-49
2022/06/01 01:38:40;;;;;;;3.55;3.25;;;9.90;99.90;;;;;;5106540;28;20027;-49
2022/06/01 01:41:23;;;;;;;2.92;2.72;;;9.90;99.90;;;;;;5100593;28;20520;-49
2022/06/01 01:44:00;;;;;;;2.67;2.47;;;9.80;99.90;;;;;;5100703;28;20031;-49
2022/06/01 01:46:27;;;;;;;3.30;2.50;;;9.80;99.90;;;;;;5102469;28;20048;-48
2022/06/01 01:48:53;;;;;;;3.75;2.45;;;9.70;99.90;;;;;;5101496;28;20016;-47
2022/06/01 01:51:21;;;;;;;3.25;2.70;;;9.70;99.90;;;;;;5084000;28;20011;-44
2022/06/01 01:53:47;;;;;;;2.90;2.70;;;9.70;99.90;;;;;;5102534;28;20110;-46
2022/06/01 01:56:38;;;;;;;3.35;2.10;;;9.70;99.90;;;;;;5102170;28;20019;-45
2022/06/01 01:59:14;;;;;;;2.47;2.28;;;9.60;99.90;;;;;;5099992;28;20228;-47
2022/06/01 02:01:48;;;;;;;3.10;2.80;;;9.60;99.90;;;;;;5104098;28;20003;-48
2022/06/01 02:07:47;;;;;;;2.63;2.42;;;9.50;99.90;;;;;;5092755;28;20030;-45
2022/06/01 02:12:59;;;;;;;2.47;2.28;;;9.40;99.90;;;;;;5057707;28;20035;-48
2022/06/01 02:15:33;;;;;;;2.63;2.42;;;9.40;99.90;;;;;;5102048;28;20031;-46
2022/06/01 02:18:05;;;;;;;2.28;2.17;;;9.30;99.90;;;;;;5093738;28;20436;-47
2022/06/01 02:20:33;;;;;;;2.30;2.10;;;9.30;99.90;;;;;;5102221;28;20558;-44
2022/06/01 02:23:01;;;;;;;2.90;2.70;;;9.20;99.90;;;;;;5100349;28;20020;-46
2022/06/01 02:25:27;;;;;;;2.70;2.50;;;9.20;99.90;;;;;;5101336;28;20052;-45
2022/06/01 02:27:57;;;;;;;2.55;2.35;;;9.20;99.90;;;;;;5101260;28;20629;-45
2022/06/01 02:30:33;;;;;;;2.70;2.50;;;9.10;99.90;;;;;;5076215;28;20011;-44
2022/06/01 02:33:00;;;;;;;2.83;2.63;;;9.10;99.90;;;;;;5099986;28;20032;-45
2022/06/01 02:35:29;;;;;;;2.55;2.35;;;9.10;99.90;;;;;;5102775;28;20069;-45
2022/06/01 02:37:58;;;;;;;3.08;2.88;;;9.00;99.90;;;;;;5628405;22;20050;-50
2022/06/01 02:40:25;;;;;;;2.35;2.15;;;9.00;99.90;;;;;;5109654;28;20547;-50
2022/06/01 02:42:52;;;;;;;2.90;2.70;;;9.00;99.90;;;;;;5090263;28;20110;-49
2022/06/01 02:45:21;;;;;;;3.13;2.60;;;9.00;99.90;;;;;;5105691;28;20011;-51
2022/06/01 02:47:50;;;;;;;2.70;2.50;;;9.00;99.90;;;;;;5108184;28;20110;-51
2022/06/01 02:50:20;;;;;;;2.55;2.35;;;9.00;99.90;;;;;;5075483;28;20216;-53
2022/06/01 02:52:46;;;;;;;2.70;2.50;;;8.90;99.90;;;;;;5105131;28;20418;-51
2022/06/01 02:55:13;;;;;;;2.53;2.33;;;8.90;99.90;;;;;;5098304;28;20012;-49
2022/06/01 02:57:41;;;;;;;3.15;2.88;;;8.90;99.90;;;;;;5098112;28;20027;-50
2022/06/01 03:00:19;;;;;;;3.08;2.60;;;8.90;99.90;;;;;;5085799;28;20393;-53
2022/06/01 03:02:47;;;;;;;3.25;2.95;;;8.90;99.90;;;;;;5093476;28;20456;-52
2022/06/01 03:05:15;;;;;;;3.42;3.13;;;8.80;99.90;;;;;;5104929;28;20020;-51
2022/06/01 03:07:41;;;;;;;3.90;3.20;;;8.80;99.90;;;;;;5097403;28;20043;-49
2022/06/01 03:10:07;;;;;;;3.33;3.03;;;8.80;99.90;;;;;;5087255;28;20020;-47
2022/06/01 03:12:33;;;;;;;3.50;2.97;;;8.80;99.90;;;;;;5088507;28;20114;-51
2022/06/01 03:14:58;;;;;;;3.80;3.38;;;8.80;99.90;;;;;;5099295;28;20455;-52
2022/06/01 03:17:24;;;;;;;4.35;3.40;;;8.80;99.90;;;;;;5100287;28;20167;-52
2022/06/01 03:19:49;;;;;;;3.70;3.40;;;8.80;99.90;;;;;;5081868;28;20012;-51
2022/06/01 03:22:15;;;;;;;3.88;3.38;;;8.80;99.90;;;;;;5082964;28;20113;-52
2022/06/01 03:24:41;;;;;;;4.00;3.60;;;8.80;99.90;;;;;;5081604;28;20043;-49
2022/06/01 03:27:07;;;;;;;3.50;3.20;;;8.80;99.90;;;;;;5081872;28;20021;-51
2022/06/01 03:29:33;;;;;;;3.58;3.28;;;8.90;99.90;;;;;;5082676;28;20489;-49
2022/06/01 03:31:59;;;;;;;4.47;4.03;;;8.90;99.90;;;;;;5099294;28;20111;-50
2022/06/01 03:34:26;;;;;;;4.38;3.97;;;8.90;99.90;;;;;;5096102;28;20016;-50
2022/06/01 03:36:52;;;;;;;4.68;3.78;;;8.90;99.90;;;;;;5097908;28;20020;-52
2022/06/01 03:39:17;;;;;;;3.80;3.50;;;8.90;99.90;;;;;;5101012;28;20030;-50
2022/06/01 03:41:43;;;;;;;3.85;3.47;;;8.90;99.90;;;;;;5099171;28;20055;-48
2022/06/01 03:47:00;;;;;;;3.88;3.53;;;8.90;99.90;;;;;;5099696;28;20042;-52
2022/06/01 03:49:26;;;;;;;4.13;3.50;;;8.90;99.90;;;;;;5100686;28;20020;-49
2022/06/01 03:51:51;;;;;;;4.25;3.85;;;8.90;99.90;;;;;;5099657;28;20042;-48
2022/06/01 03:54:17;;;;;;;3.55;3.25;;;9.00;99.90;;;;;;5102301;28;20089;-48
2022/06/01 03:56:43;;;;;;;5.38;3.92;;;9.00;99.90;;;;;;5104554;28;20026;-48
2022/06/01 03:59:08;;;;;;;3.67;3.38;;;9.00;99.90;;;;;;5083932;28;20051;-52
2022/06/01 04:01:34;;;;;;;4.07;3.70;;;9.10;99.90;;;;;;5104036;28;20523;-51
2022/06/01 04:03:59;;;;;;;3.10;2.80;;;9.10;99.90;;;;;;5102961;28;20028;-51
2022/06/01 04:06:25;;;;;;;4.63;3.50;;;9.10;99.90;;;;;;5104465;28;20027;-51
2022/06/01 04:08:50;;;;;;;4.53;3.58;;;9.10;99.90;;;;;;5103693;28;20024;-52
2022/06/01 04:11:16;;;;;;;3.92;3.60;;;9.20;99.90;;;;;;5098106;28;20047;-49
2022/06/01 04:13:41;;;;;;;4.60;4.05;;;9.20;99.90;;;;;;5102203;28;20019;-51
2022/06/01 04:16:07;;;;;;;3.90;3.60;;;9.30;99.90;;;;;;5101637;28;20031;-51
2022/06/01 04:18:33;;;;;;;3.90;3.42;;;9.30;99.90;;;;;;5106141;28;20019;-52
2022/06/01 04:20:58;;;;;;;4.57;3.60;;;9.40;99.90;;;;;;5067406;28;20566;-50
2022/06/01 04:23:24;;;;;;;3.97;3.55;;;9.50;99.90;;;;;;5081912;28;20537;-52
2022/06/01 04:25:49;;;;;;;4.32;3.45;;;9.60;99.90;;;;;;5088384;28;20019;-48
2022/06/01 04:28:15;;;;;;;5.65;4.70;;;9.60;99.90;;;;;;5100233;28;20158;-50
2022/06/01 04:30:41;;;;;;;5.25;3.72;;;9.70;99.90;;;;;;5106089;28;20047;-53
2022/06/01 04:33:07;;;;;;;4.10;3.70;;;9.80;99.90;;;;;;5100531;28;20024;-51
2022/06/01 04:35:33;;;;;;;4.53;3.92;;;9.80;99.90;;;;;;5087900;28;20111;-50
2022/06/01 04:38:12;;;;;;;6.45;4.40;;;10.00;99.90;;;;;;5102243;28;20040;-51
2022/06/01 04:40:39;;;;;;;4.55;4.13;;;10.00;99.90;;;;;;5095166;28;20023;-48
2022/06/01 04:43:05;;;;;;;4.20;3.80;;;10.10;99.90;;;;;;5106046;28;20058;-52
2022/06/01 04:45:30;;;;;;;4.18;3.78;;;10.10;99.90;;;;;;5100137;28;20044;-52
2022/06/01 04:47:56;;;;;;;3.67;3.38;;;10.20;99.90;;;;;;5107298;28;20026;-51
2022/06/01 04:50:21;;;;;;;3.60;2.97;;;10.30;99.90;;;;;;5100325;28;20330;-50
2022/06/01 04:52:47;;;;;;;4.78;3.28;;;10.30;99.90;;;;;;5089769;28;20024;-49
2022/06/01 04:55:13;;;;;;;3.83;3.08;;;10.40;99.90;;;;;;5100304;28;20104;-50
2022/06/01 04:57:39;;;;;;;2.97;2.78;;;10.50;99.90;;;;;;5097943;28;20081;-48
2022/06/01 05:00:06;;;;;;;3.08;2.78;;;10.50;99.90;;;;;;5085703;28;20031;-53
2022/06/01 05:02:32;;;;;;;3.75;3.35;;;10.50;99.90;;;;;;5098377;28;20496;-49
2022/06/01 05:04:57;;;;;;;3.03;2.25;;;10.60;99.90;;;;;;5107203;28;20032;-52
2022/06/01 05:07:23;;;;;;;3.85;3.42;;;10.60;99.90;;;;;;5099217;28;20028;-53
2022/06/01 05:09:49;;;;;;;2.95;2.67;;;10.70;99.90;;;;;;5089646;28;20047;-52
2022/06/01 05:12:14;;;;;;;4.32;3.58;;;10.80;99.90;;;;;;5069789;28;20367;-48
2022/06/01 05:14:40;;;;;;;3.50;3.20;;;10.80;99.90;;;;;;5102801;28;20027;-50
2022/06/01 05:17:06;;;;;;;5.20;3.15;;;10.80;99.90;;;;;;5101849;28;20028;-49
2022/06/01 05:19:33;;;;;;;3.58;2.97;;;10.90;99.90;;;;;;5086688;28;20024;-49
2022/06/01 05:21:59;;;;;;;3.17;2.80;;;11.00;99.90;;;;;;5099872;28;20027;-51
2022/06/01 05:24:25;;;;;;;4.75;2.75;;;11.00;99.90;;;;;;5103376;28;20031;-53
2022/06/01 05:26:51;;;;;;;2.50;2.30;;;11.10;99.90;;;;;;5100769;28;20020;-48
2022/06/01 05:29:16;;;;;;;2.35;2.05;;;11.10;99.90;;;;;;5084951;28;20027;-53
2022/06/01 05:31:43;;;;;;;2.45;2.25;;;11.20;99.90;;;;;;5102385;28;20023;-51
2022/06/01 05:34:09;;;;;;;2.67;2.42;;;11.20;99.90;;;;;;5102309;28;20028;-50
2022/06/01 05:36:35;;;;;;;4.10;2.03;;;11.20;99.90;;;;;;5103932;28;20158;-49
2022/06/01 05:39:00;;;;;;;3.28;2.40;;;11.20;99.90;;;;;;5101041;28;20059;-51
2022/06/01 05:41:26;;;;;;;2.72;2.03;;;11.20;99.90;;;;;;5084456;28;20496;-49
2022/06/01 05:43:53;;;;;;;2.78;2.15;;;11.20;99.90;;;;;;5100203;28;20024;-48
2022/06/01 05:46:19;;;;;;;1.70;1.60;;;11.20;99.90;;;;;;5102698;28;20023;-49
2022/06/01 05:48:45;;;;;;;1.98;1.88;;;11.20;99.90;;;;;;5101667;28;20028;-52
2022/06/01 05:51:10;;;;;;;2.95;2.33;;;11.20;99.90;;;;;;5101787;28;20435;-52
2022/06/01 05:53:36;;;;;;;2.88;2.58;;;11.20;99.90;;;;;;5103686;28;20012;-50
2022/06/01 05:56:02;;;;;;;3.05;2.58;;;11.20;99.90;;;;;;5101162;28;20039;-49
2022/06/01 05:58:29;;;;;;;6.75;2.75;;;11.20;99.90;;;;;;5084172;28;20102;-49
2022/06/01 06:00:59;;;;;;;3.65;2.65;;;11.10;99.90;;;;;;5100307;28;20028;-50
2022/06/01 06:03:25;;;;;;;5.40;2.83;;;11.10;99.90;;;;;;5102326;28;20015;-48
2022/06/01 06:08:36;;;;;;;3.30;2.95;;;11.00;99.90;;;;;;5087232;28;20096;-51
2022/06/01 06:11:02;;;;;;;3.78;3.42;;;10.90;99.90;;;;;;5099237;28;20446;-52
2022/06/01 06:13:28;;;;;;;3.90;3.13;;;10.80;99.90;;;;;;5096285;28;20072;-50
2022/06/01 06:15:54;;;;;;;3.53;3.22;;;10.80;99.90;;;;;;5101623;28;20389;-51
2022/06/01 06:18:19;;;;;;;4.35;3.28;;;10.80;99.90;;;;;;5101559;28;20038;-48
2022/06/01 06:20:45;;;;;;;4.18;3.55;;;10.70;99.90;;;;;;5098396;28;20028;-49
2022/06/01 06:23:12;;;;;;;3.95;3.55;;;10.60;99.90;;;;;;5098732;28;20536;-48
2022/06/01 06:25:40;;;;;;;3.90;3.60;;;10.60;99.90;;;;;;5103332;28;20027;-48
2022/06/01 06:28:05;;;;;;;4.82;3.97;;;10.70;99.90;;;;;;5099297;28;20024;-50
2022/06/01 06:30:32;;;;;;;3.78;3.40;;;10.70;99.90;;;;;;5084891;28;20111;-49
2022/06/01 06:32:57;;;;;;;3.75;3.45;;;10.70;99.90;;;;;;5065400;28;20497;-48
2022/06/01 06:35:23;;;;;;;3.85;3.55;;;10.70;99.90;;;;;;5102615;28;20027;-51
2022/06/01 06:37:48;;;;;;;4.75;4.00;;;10.70;99.90;;;;;;5083440;28;20035;-48
2022/06/01 06:40:14;;;;;;;6.07;5.35;;;10.70;99.90;;;;;;5077615;28;20422;-49
2022/06/01 06:42:41;;;;;;;7.22;5.10;;;10.70;99.90;;;;;;5103419;28;20023;-48
2022/06/01 06:45:07;;;;;;;5.20;4.70;;;10.70;99.90;;;;;;5099248;28;20039;-47
2022/06/01 06:47:33;;;;;;;6.32;5.72;;;10.60;99.90;;;;;;5103185;28;20026;-50
2022/06/01 06:50:01;;;;;;;5.93;5.32;;;10.60;99.90;;;;;;5100492;28;20432;-48
2022/06/01 06:52:26;;;;;;;7.03;6.07;;;10.60;99.90;;;;;;5102890;28;20020;-47
2022/06/01 06:54:52;;;;;;;7.18;5.70;;;10.60;99.90;;;;;;5082982;28;20073;-48
2022/06/01 06:57:18;;;;;;;6.00;5.47;;;10.60;99.90;;;;;;5098185;28;20021;-48
2022/06/01 06:59:44;;;;;;;5.80;5.30;;;10.60;99.90;;;;;;5103586;28;20023;-49
2022/06/01 07:02:10;;;;;;;6.82;6.22;;;10.60;99.90;;;;;;5098363;28;20015;-51
2022/06/01 07:04:36;;;;;;;6.22;5.63;;;10.60;99.90;;;;;;5103552;28;20367;-49
2022/06/01 07:07:02;;;;;;;5.95;5.45;;;10.60;99.90;;;;;;5099961;28;20038;-52
2022/06/01 07:09:28;;;;;;;5.97;5.28;;;10.70;99.90;;;;;;5103036;28;20020;-50
2022/06/01 07:11:54;;;;;;;6.60;6.00;;;10.70;99.90;;;;;;5068144;28;20017;-48
2022/06/01 07:14:20;;;;;;;6.07;5.57;;;10.70;99.90;;;;;;5085768;28;20382;-49
2022/06/01 07:16:45;;;;;;;7.03;6.43;;;10.70;99.90;;;;;;5094331;28;20028;-47
2022/06/01 07:19:11;;;;;;;7.80;7.00;;;10.70;99.90;;;;;;5106313;28;20020;-47
2022/06/01 07:21:36;;;;;;;8.70;6.68;;;10.70;99.90;;;;;;5097285;28;20028;-49
2022/06/01 07:24:04;;;;;;;8.05;7.35;;;10.80;99.90;;;;;;5099914;28;20048;-48
2022/06/01 07:26:33;;;;;;;7.13;6.53;;;10.80;99.90;;;;;;5083661;28;20024;-48
2022/06/01 07:28:59;;;;;;;8.13;7.30;;;10.80;99.90;;;;;;5082053;28;20027;-49
2022/06/01 07:31:25;;;;;;;7.35;6.65;;;10.80;99.90;;;;;;5107240;28;20034;-47
2022/06/01 07:33:51;;;;;;;7.90;7.10;;;10.80;99.90;;;;;;5084028;28;20020;-51
2022/06/01 07:36:17;;;;;;;7.72;6.97;;;10.80;99.90;;;;;;5109543;28;20040;-51
2022/06/01 07:43:05;;;;;;;8.13;7.43;;;10.80;99.90;;;;;;5093039;28;20034;-49
2022/06/01 07:44:43;;;;;;;7.40;6.80;;;10.90;99.90;;;;;;5099585;28;20050;-48
2022/06/01 07:47:10;;;;;;;7.93;7.22;;;10.80;99.90;;;;;;5085524;28;20041;-47
2022/06/01 07:49:36;;;;;;;7.90;7.20;;;10.80;99.90;;;;;;5105236;28;20496;-50
2022/06/01 07:52:03;;;;;;;8.30;7.43;;;10.80;99.90;;;;;;5104400;28;20090;-49
2022/06/01 07:54:29;;;;;;;9.90;8.13;;;10.90;99.90;;;;;;5105602;28;20045;-47
2022/06/01 07:56:55;;;;;;;7.82;7.13;;;10.90;99.90;;;;;;5104268;28;20068;-48
2022/06/01 07:59:20;;;;;;;7.55;6.20;;;10.90;99.90;;;;;;5103949;28;20023;-51
2022/06/01 08:01:46;;;;;;;7.57;6.88;;;11.00;99.90;;;;;;5104985;28;20405;-47
2022/06/01 08:04:13;;;;;;;8.25;7.50;;;11.10;99.90;;;;;;5103776;28;20028;-51
2022/06/01 08:06:39;;;;;;;8.55;7.75;;;11.10;99.90;;;;;;5104732;28;20020;-48
2022/06/01 08:09:05;;;;;;;10.18;9.23;;;11.20;99.90;;;;;;5104243;28;20027;-51
2022/06/01 08:14:16;;;;;;;8.57;7.78;;;11.30;99.90;;;;;;5094973;28;20031;-47
2022/06/01 08:16:44;;;;;;;8.02;7.20;;;11.30;99.90;;;;;;5082877;28;20386;-47
2022/06/01 08:19:10;;;;;;;8.60;7.80;;;11.40;99.90;;;;;;5090868;28;20103;-47
2022/06/01 08:21:37;;;;;;;10.00;9.10;;;11.40;99.90;;;;;;5099984;28;20106;-49
2022/06/01 08:24:04;;;;;;;10.40;8.70;;;11.50;99.90;;;;;;5103041;28;20054;-51
2022/06/01 08:26:30;;;;;;;9.82;8.93;;;11.50;99.90;;;;;;5108313;28;20602;-48
2022/06/01 08:28:56;;;;;;;9.95;9.02;;;11.60;99.90;;;;;;5083567;28;20037;-47
2022/06/01 08:31:26;;;;;;;9.38;8.57;;;11.70;99.90;;;;;;5106552;28;20012;-49
2022/06/01 08:33:56;;;;;;;9.75;8.85;;;11.80;99.90;;;;;;5101444;28;20509;-48
2022/06/01 08:36:21;;;;;;;9.52;8.63;;;11.90;99.90;;;;;;5107691;28;20020;-48
2022/06/01 08:38:47;;;;;;;10.25;9.35;;;11.90;99.90;;;;;;5120813;22;20046;-46
2022/06/01 08:41:14;;;;;;;10.50;9.57;;;12.00;99.90;;;;;;5110090;28;20096;-44
2022/06/01 08:43:51;;;;;;;11.63;10.52;;;12.10;99.90;;;;;;5108421;28;20043;-43
2022/06/01 08:46:18;;;;;;;12.13;8.98;;;12.20;99.90;;;;;;5104277;28;20533;-48
2022/06/01 08:48:49;;;;;;;10.60;9.60;;;12.30;99.90;;;;;;5104206;28;20020;-45
2022/06/01 08:51:19;;;;;;;10.88;9.88;;;12.30;99.90;;;;;;5089221;28;20095;-43
2022/06/01 08:53:44;;;;;;;10.23;9.27;;;12.30;99.90;;;;;;5103717;28;20027;-43
2022/06/01 08:56:17;;;;;;;10.93;9.93;;;12.50;99.90;;;;;;5103233;28;20019;-44
2022/06/01 08:59:09;;;;;;;9.13;8.32;;;12.50;99.90;;;;;;5102267;28;20012;-43
2022/06/01 09:01:51;;;;;;;11.48;10.52;;;12.70;99.90;;;;;;5096096;28;20088;-43
2022/06/01 09:04:53;;;;;;;11.23;10.05;;;12.90;99.90;;;;;;5102118;28;20497;-43
2022/06/01 09:07:41;;;;;;;10.43;9.52;;;13.00;99.90;;;;;;5096530;28;20027;-45
2022/06/01 09:10:40;;;;;;;9.20;8.40;;;13.10;99.90;;;;;;5108138;28;20034;-43
2022/06/01 09:13:11;;;;;;;8.77;7.97;;;13.20;99.90;;;;;;5093235;28;20428;-43
2022/06/01 09:15:47;;;;;;;9.68;8.40;;;13.40;99.90;;;;;;5103194;28;20076;-43
2022/06/01 09:18:13;;;;;;;7.50;6.80;;;13.60;99.90;;;;;;5102709;28;20019;-44
2022/06/01 09:23:24;;;;;;;7.90;7.25;;;13.80;99.90;;;;;;5097624;28;20092;-43
2022/06/01 09:25:54;;;;;;;7.88;7.07;;;13.80;99.90;;;;;;5105741;28;20024;-46
2022/06/01 09:28:24;;;;;;;7.35;6.75;;;14.00;99.90;;;;;;5099414;28;20027;-44
2022/06/01 09:31:02;;;;;;;7.53;6.88;;;14.10;99.90;;;;;;5106571;28;20048;-44
2022/06/01 09:33:37;;;;;;;8.23;7.40;;;14.30;99.90;;;;;;5099197;28;20040;-44
2022/06/01 09:36:09;;;;;;;7.95;7.28;;;14.40;99.90;;;;;;5107957;28;20011;-46
2022/06/01 09:38:49;;;;;;;8.25;7.50;;;14.40;99.90;;;;;;5099319;28;20385;-43
2022/06/01 09:41:26;;;;;;;8.48;7.68;;;14.40;99.90;;;;;;5087065;28;20016;-48
2022/06/01 09:43:57;;;;;;;6.50;5.90;;;14.50;99.90;;;;;;5100910;28;20031;-47
2022/06/01 09:46:28;;;;;;;6.15;5.57;;;14.80;99.90;;;;;;5102921;28;20020;-45
2022/06/01 09:48:54;;;;;;;5.80;5.30;;;14.80;99.90;;;;;;5101173;28;20031;-48
2022/06/01 09:51:22;;;;;;;7.25;5.70;;;15.00;99.90;;;;;;5102484;28;20389;-45
2022/06/01 09:54:24;;;;;;;6.15;5.55;;;15.00;99.90;;;;;;5083941;28;20028;-47
2022/06/01 09:56:50;;;;;;;5.30;4.90;;;15.20;99.90;;;;;;5098726;28;20034;-48
2022/06/01 10:08:24;;;;;;;4.05;3.17;;;15.00;99.90;;;;;;5098617;28;20038;-47
2022/06/01 10:11:03;;;;;;;5.85;4.28;;;15.00;99.90;;;;;;5101750;28;20020;-44
2022/06/01 10:13:38;;;;;;;3.97;2.92;;;14.90;99.90;;;;;;5073003;28;20039;-46
2022/06/01 10:16:19;;;;;;;2.55;2.35;;;14.50;99.90;;;;;;5102916;28;20098;-45
2022/06/01 10:18:46;;;;;;;3.30;2.90;;;14.40;99.90;;;;;;5106221;28;20099;-45
2022/06/01 10:21:16;;;;;;;3.55;3.22;;;14.40;99.90;;;;;;5098412;28;20549;-45
2022/06/01 10:23:50;;;;;;;3.33;3.00;;;14.50;99.90;;;;;;5098814;28;20101;-44
2022/06/01 10:26:37;;;;;;;3.10;2.80;;;14.40;99.90;;;;;;5092845;28;20042;-46
2022/06/01 10:29:13;;;;;;;3.00;2.80;;;14.30;99.90;;;;;;5100377;28;20020;-46
2022/06/01 10:31:44;;;;;;;2.60;2.40;;;14.40;99.90;;;;;;5101537;28;20032;-44
2022/06/01 10:34:23;;;;;;;3.10;2.90;;;14.60;99.90;;;;;;5101568;28;20012;-47
2022/06/01 10:36:55;;;;;;;2.70;2.42;;;14.90;99.90;;;;;;5101521;28;20408;-45
2022/06/01 10:39:30;;;;;;;4.35;3.45;;;15.10;99.90;;;;;;5089670;28;20031;-45
2022/06/01 10:42:02;;;;;;;4.45;3.67;;;15.20;99.90;;;;;;5099340;28;20027;-46
2022/06/01 10:44:55;;;;;;;7.18;5.32;;;15.40;99.90;;;;;;5101814;28;20023;-45
2022/06/01 10:47:37;;;;;;;5.03;4.55;;;15.50;99.90;;;;;;5101307;28;20084;-45
2022/06/01 10:50:09;;;;;;;5.53;4.65;;;15.50;99.90;;;;;;5099701;28;20074;-46
2022/06/01 10:52:42;;;;;;;5.22;4.82;;;15.80;99.90;;;;;;5098431;28;20020;-45
2022/06/01 10:55:28;;;;;;;5.60;4.35;;;15.80;99.90;;;;;;5080996;28;20032;-45
2022/06/01 10:58:00;;;;;;;4.07;3.67;;;15.90;99.90;;;;;;5096510;28;20031;-46
2022/06/01 11:00:31;;;;;;;5.22;4.78;;;15.90;99.90;;;;;;5103126;28;20394;-45
2022/06/01 11:02:56;;;;;;;4.82;4.43;;;16.00;99.90;;;;;;5099218;28;20035;-45
2022/06/01 11:06:04;;;;;;;5.18;4.60;;;16.20;99.90;;;;;;5103700;28;20020;-48
2022/06/01 11:08:55;;;;;;;4.35;4.05;;;16.10;99.90;;;;;;5091157;28;20043;-48
2022/06/01 11:11:36;;;;;;;4.60;4.20;;;16.00;99.90;;;;;;5089389;28;20032;-47
2022/06/01 11:14:10;;;;;;;3.80;3.50;;;15.90;99.90;;;;;;5103335;28;20030;-48
2022/06/01 11:17:01;;;;;;;4.05;3.75;;;15.80;99.90;;;;;;5097945;28;20016;-50
2022/06/01 11:19:52;;;;;;;3.35;3.05;;;15.70;99.90;;;;;;5091119;28;20093;-50
2022/06/01 11:22:22;;;;;;;4.18;3.50;;;15.60;99.90;;;;;;5088412;28;20031;-50
2022/06/01 11:25:19;;;;;;;4.00;3.60;;;15.70;99.90;;;;;;5099159;28;20103;-50
2022/06/01 11:28:03;;;;;;;3.30;3.00;;;15.90;99.90;;;;;;5078304;28;20027;-48
2022/06/01 11:30:48;;;;;;;3.58;3.17;;;16.10;99.90;;;;;;5095788;28;20044;-48
2022/06/01 11:33:27;;;;;;;3.53;3.23;;;16.10;99.90;;;;;;5093396;28;20474;-47
2022/06/01 11:36:05;;;;;;;3.63;3.33;;;16.40;99.90;;;;;;5105753;28;20058;-47
2022/06/01 11:38:40;;;;;;;3.65;3.35;;;16.70;99.90;;;;;;5097396;28;20031;-47
2022/06/01 11:41:13;;;;;;;4.22;3.28;;;17.00;99.90;;;;;;5099268;28;20035;-50
2022/06/01 11:43:47;;;;;;;3.70;3.40;;;17.20;99.90;;;;;;5100235;28;20081;-46
2022/06/01 11:46:23;;;;;;;4.03;2.90;;;17.30;99.90;;;;;;5101128;28;20020;-48
2022/06/01 11:48:54;;;;;;;3.00;2.80;;;17.30;99.90;;;;;;5099996;28;20032;-51
2022/06/01 11:51:43;;;;;;;5.13;3.10;;;17.40;99.90;;;;;;5087830;28;20023;-50
2022/06/01 11:54:14;;;;;;;3.60;3.03;;;17.50;99.90;;;;;;5100516;28;20517;-48
2022/06/01 11:57:11;;;;;;;4.10;3.70;;;17.40;99.90;;;;;;5101325;28;20070;-52
2022/06/01 12:00:20;;;;;;;5.43;3.03;;;17.30;99.90;;;;;;5096792;28;20023;-48
2022/06/01 12:02:50;;;;;;;3.85;3.55;;;17.20;99.90;;;;;;5083959;28;20039;-49
2022/06/01 12:05:32;;;;;;;2.65;2.45;;;17.10;99.90;;;;;;5104320;28;20086;-45
2022/06/01 12:08:06;;;;;;;3.63;2.67;;;17.30;99.90;;;;;;5060263;28;20035;-45
2022/06/01 12:11:03;;;;;;;3.42;3.13;;;17.40;99.90;;;;;;5103429;28;20013;-45
2022/06/01 12:13:51;;;;;;;4.13;3.75;;;17.50;99.90;;;;;;5096331;28;20101;-51
2022/06/01 12:16:21;;;;;;;3.63;3.30;;;17.40;99.90;;;;;;5094892;28;20012;-48
2022/06/01 12:19:19;;;;;;;3.20;2.90;;;17.30;99.90;;;;;;5108649;28;20023;-45
2022/06/01 12:21:44;;;;;;;4.38;3.53;;;17.30;99.90;;;;;;5099545;28;20024;-48
2022/06/01 12:30:19;;;;;;;2.78;2.58;;;16.60;99.90;;;;;;5011054;28;20046;-45
2022/06/01 12:32:59;;;;;;;3.00;2.70;;;16.40;99.90;;;;;;5104021;28;20019;-45
2022/06/01 12:35:31;;;;;;;5.72;3.17;;;16.50;99.90;;;;;;5104962;28;20066;-45
2022/06/01 12:38:33;;;;;;;4.32;3.92;;;16.90;99.90;;;;;;5102833;28;20051;-46
2022/06/01 12:41:12;;;;;;;3.58;3.15;;;17.10;99.90;;;;;;5095346;28;20055;-46
2022/06/01 12:43:39;;;;;;;4.28;3.58;;;17.30;99.90;;;;;;5103169;28;20077;-48
2022/06/01 12:46:40;;;;;;;3.65;3.35;;;17.60;99.90;;;;;;5102694;28;20057;-46
2022/06/01 12:49:33;;;;;;;4.28;3.58;;;17.80;99.90;;;;;;5101883;28;20482;-47
2022/06/01 12:52:05;;;;;;;2.92;2.72;;;17.90;99.90;;;;;;5103153;28;20034;-45
2022/06/01 12:54:37;;;;;;;3.25;2.80;;;17.40;99.90;;;;;;5103783;28;20015;-45
2022/06/01 12:57:05;;;;;;;4.13;2.95;;;16.40;99.90;;;;;;5101657;28;20031;-47
2022/06/01 12:59:33;;;;;;;5.25;3.03;;;15.90;99.90;;;;;;5104157;28;20382;-46
2022/06/01 13:02:04;;;;;;;5.05;3.40;;;15.30;99.90;;;;;;5101569;28;20092;-46
2022/06/01 13:04:29;;;;;;;3.72;3.10;;;14.80;99.90;;;;;;5104551;28;20047;-47
2022/06/01 13:06:56;;;;;;;4.88;3.67;;;14.50;99.90;;;;;;5087740;28;20091;-45
2022/06/01 13:09:27;;;;;;;4.78;3.95;;;14.20;99.90;;;;;;5094516;28;20108;-43
2022/06/01 13:12:04;;;;;;;3.53;3.22;;;13.80;99.90;;;;;;5088816;28;20555;-44
2022/06/01 13:14:33;;;;;;;4.97;3.72;;;13.50;99.90;;;;;;5084460;28;20023;-45
2022/06/01 13:17:13;;;;;;;5.65;4.38;;;13.20;99.90;;;;;;5100384;28;20012;-46
2022/06/01 13:19:40;;;;;;;4.72;4.25;;;12.90;99.90;;;;;;5092229;28;20038;-47
2022/06/01 13:22:21;;;;;;;4.32;3.92;;;12.80;99.90;;;;;;5106113;28;20023;-45
2022/06/01 13:25:05;;;;;;;6.80;4.20;;;12.70;99.90;;;;;;5099988;28;20501;-46
2022/06/01 13:27:34;;;;;;;6.95;4.88;;;12.60;99.90;;;;;;5090702;28;20034;-51
2022/06/01 13:30:01;;;;;;;5.20;4.70;;;12.60;99.90;;;;;;5101094;28;20823;-45
2022/06/01 13:32:35;;;;;;;4.90;4.50;;;12.60;99.90;;;;;;5102695;28;20026;-46
2022/06/01 13:35:22;;;;;;;5.15;4.65;;;12.50;99.90;;;;;;5101061;28;20024;-45
2022/06/01 13:37:50;;;;;;;;;;;12.40;99.90;;;;;;5102684;28;20047;-46
2022/06/01 13:40:27;;;;;;;5.78;5.15;;;12.40;99.90;;;;;;5091946;28;19957;-46
2022/06/01 13:43:05;;;;;;;6.35;5.03;;;12.20;99.90;;;;;;5101967;28;20096;-45